createdAt,value
2023-03-15T00:02:04.882Z,5.07
2023-03-15T00:04:32.768Z,4.57
2023-03-15T00:07:00.999Z,4.75
2023-03-15T00:09:28.442Z,5.00
2023-03-15T00:11:55.965Z,5.20
2023-03-15T00:16:51.226Z,4.07
2023-03-15T00:19:18.667Z,4.57
2023-03-15T00:21:46.153Z,4.82
2023-03-15T00:29:09.480Z,5.57
2023-03-15T00:31:37.227Z,5.13
2023-03-15T00:34:04.668Z,4.43
2023-03-15T00:38:59.657Z,4.10
2023-03-15T00:41:27.389Z,4.40
2023-03-15T00:43:54.934Z,4.35
2023-03-15T00:46:22.530Z,4.57
2023-03-15T00:48:51.369Z,4.78
2023-03-15T00:51:22.051Z,5.03
2023-03-15T00:53:51.661Z,5.15
2023-03-15T00:56:24.711Z,5.03
2023-03-15T00:58:53.179Z,4.13
2023-03-15T01:01:24.620Z,4.05
2023-03-15T01:03:53.132Z,4.15
2023-03-15T01:06:25.560Z,4.25
2023-03-15T01:08:55.931Z,4.10
2023-03-15T01:11:25.894Z,3.97
2023-03-15T01:13:55.821Z,3.88
2023-03-15T01:16:23.955Z,4.22
2023-03-15T01:18:51.994Z,4.32
2023-03-15T01:21:21.629Z,4.25
2023-03-15T01:23:49.323Z,4.63
2023-03-15T01:26:18.129Z,4.70
2023-03-15T01:28:45.899Z,4.20
2023-03-15T01:31:26.215Z,3.80
2023-03-15T01:33:54.428Z,3.75
2023-03-15T01:36:22.240Z,4.03
2023-03-15T01:38:50.236Z,3.95
2023-03-15T01:41:21.223Z,3.40
2023-03-15T01:43:48.970Z,3.50
2023-03-15T01:46:23.818Z,3.53
2023-03-15T01:48:59.020Z,3.20
2023-03-15T01:51:54.556Z,3.10
2023-03-15T01:54:40.507Z,3.50
2023-03-15T01:57:13.486Z,3.47
2023-03-15T01:59:48.376Z,3.15
2023-03-15T02:02:16.098Z,3.58
2023-03-15T02:04:49.664Z,3.70
2023-03-15T02:07:22.766Z,3.83
2023-03-15T02:10:05.704Z,3.58
2023-03-15T02:12:41.032Z,3.10
2023-03-15T02:15:09.746Z,3.33
2023-03-15T02:17:41.109Z,2.95
2023-03-15T02:20:39.297Z,3.28
2023-03-15T02:23:11.674Z,3.17
2023-03-15T02:25:52.111Z,3.20
2023-03-15T02:28:20.618Z,3.42
2023-03-15T02:30:48.846Z,3.78
2023-03-15T02:33:21.563Z,3.70
2023-03-15T02:35:49.205Z,3.35
2023-03-15T02:38:17.919Z,3.40
2023-03-15T02:40:46.541Z,3.22
2023-03-15T02:43:24.292Z,2.95
2023-03-15T02:45:54.452Z,3.67
2023-03-15T02:48:22.116Z,3.15
2023-03-15T02:50:49.754Z,2.72
2023-03-15T02:53:17.370Z,3.50
2023-03-15T02:55:44.830Z,3.25
2023-03-15T02:58:12.410Z,3.20
2023-03-15T03:00:40.445Z,2.75
2023-03-15T03:03:09.024Z,3.63
2023-03-15T03:05:36.646Z,3.20
2023-03-15T03:10:31.788Z,2.83
2023-03-15T03:13:02.036Z,2.83
2023-03-15T03:15:35.993Z,2.97
2023-03-15T03:18:04.008Z,2.60
2023-03-15T03:20:31.531Z,3.63
2023-03-15T03:22:59.074Z,3.10
2023-03-15T03:27:57.321Z,3.60
2023-03-15T03:30:27.216Z,3.13
2023-03-15T03:32:54.700Z,3.00
2023-03-15T03:35:22.320Z,3.20
2023-03-15T03:37:50.123Z,3.00
2023-03-15T03:40:22.250Z,2.90
2023-03-15T03:42:49.824Z,3.13
2023-03-15T03:45:19.759Z,3.20
2023-03-15T03:47:51.868Z,2.75
2023-03-15T03:50:19.539Z,3.60
2023-03-15T03:52:47.181Z,3.63
2023-03-15T03:55:25.555Z,3.33
2023-03-15T03:57:54.441Z,2.83
2023-03-15T04:00:36.377Z,2.85
2023-03-15T04:03:04.978Z,3.28
2023-03-15T04:05:34.903Z,2.80
2023-03-15T04:08:02.612Z,2.95
2023-03-15T04:10:35.216Z,2.63
2023-03-15T04:13:03.439Z,2.80
2023-03-15T04:15:31.520Z,3.50
2023-03-15T04:17:59.420Z,2.58
2023-03-15T04:20:39.063Z,2.58
2023-03-15T04:23:07.451Z,2.70
2023-03-15T04:25:58.060Z,2.75
2023-03-15T04:28:44.248Z,2.60
2023-03-15T04:31:37.801Z,2.70
2023-03-15T04:34:20.408Z,3.08
2023-03-15T04:37:13.909Z,2.88
2023-03-15T04:40:00.128Z,2.42
2023-03-15T04:42:42.118Z,3.00
2023-03-15T04:45:28.933Z,4.63
2023-03-15T04:48:01.583Z,2.60
2023-03-15T04:50:58.392Z,2.90
2023-03-15T04:53:46.284Z,3.55
2023-03-15T04:56:37.543Z,2.70
2023-03-15T04:59:23.608Z,3.20
2023-03-15T05:01:57.294Z,3.30
2023-03-15T05:04:50.954Z,3.00
2023-03-15T05:07:26.031Z,2.63
2023-03-15T05:10:17.138Z,3.15
2023-03-15T05:12:53.879Z,3.35
2023-03-15T05:15:35.039Z,3.17
2023-03-15T05:18:22.069Z,2.53
2023-03-15T05:21:08.261Z,2.88
2023-03-15T05:23:54.847Z,3.20
2023-03-15T05:26:28.284Z,3.33
2023-03-15T05:29:16.879Z,3.15
2023-03-15T05:31:58.959Z,3.15
2023-03-15T05:34:42.964Z,3.08
2023-03-15T05:37:27.995Z,3.17
2023-03-15T05:39:55.628Z,3.22
2023-03-15T05:42:41.739Z,3.23
2023-03-15T05:45:31.188Z,3.83
2023-03-15T05:48:17.293Z,3.83
2023-03-15T05:51:17.435Z,2.97
2023-03-15T05:54:07.772Z,3.30
2023-03-15T05:57:00.057Z,3.45
2023-03-15T05:59:43.870Z,3.13
2023-03-15T06:05:38.740Z,3.00
2023-03-15T06:08:10.952Z,3.30
2023-03-15T06:10:42.435Z,3.17
2023-03-15T06:13:11.986Z,3.10
2023-03-15T06:15:40.486Z,3.08
2023-03-15T06:18:10.072Z,3.08
2023-03-15T06:23:11.199Z,3.25
2023-03-15T06:25:46.938Z,3.00
2023-03-15T06:28:15.000Z,3.50
2023-03-15T06:30:49.091Z,3.00
2023-03-15T06:33:16.872Z,3.83
2023-03-15T06:35:46.852Z,2.95
2023-03-15T06:38:15.343Z,3.30
2023-03-15T06:40:43.896Z,3.00
2023-03-15T06:43:18.254Z,3.00
2023-03-15T06:45:46.824Z,3.63
2023-03-15T06:48:14.944Z,3.33
2023-03-15T06:50:47.393Z,3.78
2023-03-15T06:53:16.402Z,3.45
2023-03-15T06:55:45.393Z,3.33
2023-03-15T06:58:13.984Z,3.28
2023-03-15T07:00:42.485Z,3.30
2023-03-15T07:03:10.674Z,3.35
2023-03-15T07:05:38.118Z,3.88
2023-03-15T07:10:34.036Z,4.72
2023-03-15T07:13:01.820Z,3.35
2023-03-15T07:15:29.259Z,3.55
2023-03-15T07:17:57.078Z,3.65
2023-03-15T07:20:27.108Z,3.55
2023-03-15T07:22:54.676Z,3.42
2023-03-15T07:25:24.167Z,3.20
2023-03-15T07:27:53.019Z,3.10
2023-03-15T07:30:21.341Z,3.78
2023-03-15T07:32:49.057Z,2.80
2023-03-15T07:35:18.238Z,3.17
2023-03-15T07:37:46.375Z,3.25
2023-03-15T07:40:14.078Z,3.40
2023-03-15T07:42:42.166Z,3.10
2023-03-15T07:45:10.411Z,3.67
2023-03-15T07:47:38.130Z,2.95
2023-03-15T07:50:06.776Z,2.97
2023-03-15T07:52:34.354Z,2.90
2023-03-15T07:55:01.796Z,3.10
2023-03-15T07:57:29.281Z,2.90
2023-03-15T07:59:56.814Z,2.90
2023-03-15T08:02:24.320Z,3.22
2023-03-15T08:04:51.795Z,3.47
2023-03-15T08:07:19.408Z,3.50
2023-03-15T08:09:46.885Z,3.42
2023-03-15T08:12:14.614Z,2.85
2023-03-15T08:14:42.074Z,2.90
2023-03-15T08:17:13.188Z,2.78
2023-03-15T08:19:40.737Z,3.17
2023-03-15T08:22:08.323Z,2.75
2023-03-15T08:24:36.079Z,2.83
2023-03-15T08:27:05.114Z,3.22
2023-03-15T08:29:32.588Z,3.05
2023-03-15T08:32:00.217Z,2.85
2023-03-15T08:34:27.656Z,3.05
2023-03-15T08:36:55.223Z,2.90
2023-03-15T08:39:24.154Z,3.28
2023-03-15T08:41:51.733Z,4.18
2023-03-15T08:44:19.370Z,4.07
2023-03-15T08:46:46.965Z,3.70
2023-03-15T08:49:14.575Z,4.43
2023-03-15T08:51:42.008Z,4.20
2023-03-15T08:54:09.782Z,4.32
2023-03-15T08:56:37.234Z,5.07
2023-03-15T08:59:05.293Z,4.55
2023-03-15T09:01:32.826Z,4.82
2023-03-15T09:04:01.303Z,4.53
2023-03-15T09:06:29.042Z,4.40
2023-03-15T09:08:56.680Z,4.55
2023-03-15T09:11:24.156Z,3.63
2023-03-15T09:13:51.787Z,3.80
2023-03-15T09:16:19.314Z,3.67
2023-03-15T09:18:46.811Z,3.97
2023-03-15T09:21:14.230Z,3.88
2023-03-15T09:23:41.917Z,2.97
2023-03-15T09:26:09.441Z,3.08
2023-03-15T09:28:36.965Z,3.05
2023-03-15T09:31:06.562Z,2.80
2023-03-15T09:33:34.189Z,2.35
2023-03-15T09:36:01.611Z,2.25
2023-03-15T09:38:29.301Z,2.25
2023-03-15T09:40:58.737Z,2.38
2023-03-15T09:43:47.441Z,2.58
2023-03-15T09:46:27.930Z,2.60
2023-03-15T09:49:05.849Z,2.83
2023-03-15T09:51:52.242Z,3.67
2023-03-15T09:54:50.376Z,2.05
2023-03-15T09:57:24.111Z,1.60
2023-03-15T09:59:54.532Z,1.42
2023-03-15T10:02:30.257Z,1.90
2023-03-15T10:05:11.187Z,1.73
2023-03-15T10:07:38.725Z,1.98
2023-03-15T10:10:18.213Z,1.67
2023-03-15T10:13:16.718Z,1.67
2023-03-15T10:15:44.341Z,2.03
2023-03-15T10:18:14.615Z,2.15
2023-03-15T10:20:49.678Z,2.15
2023-03-15T10:23:23.657Z,1.80
2023-03-15T10:25:52.192Z,1.45
2023-03-15T10:28:33.857Z,1.80
2023-03-15T10:31:22.353Z,1.80
2023-03-15T10:33:57.483Z,1.23
2023-03-15T10:36:26.313Z,1.00
2023-03-15T10:38:53.807Z,2.15
2023-03-15T10:41:41.265Z,1.30
2023-03-15T10:44:24.711Z,1.70
2023-03-15T10:47:24.502Z,1.70
2023-03-15T10:49:59.605Z,1.30
2023-03-15T10:52:39.319Z,1.55
2023-03-15T10:55:21.849Z,2.03
2023-03-15T10:57:56.592Z,1.60
2023-03-15T11:00:29.943Z,1.80
2023-03-15T11:03:18.085Z,2.30
2023-03-15T11:05:51.482Z,1.70
2023-03-15T11:08:25.223Z,1.88
2023-03-15T11:10:59.048Z,1.42
2023-03-15T11:13:31.100Z,2.63
2023-03-15T11:16:04.683Z,1.58
2023-03-15T11:18:47.135Z,1.55
2023-03-15T11:21:16.265Z,1.52
2023-03-15T11:23:48.078Z,1.75
2023-03-15T11:26:33.003Z,1.20
2023-03-15T11:29:21.310Z,1.33
2023-03-15T11:31:51.300Z,1.08
2023-03-15T11:34:36.566Z,1.23
2023-03-15T11:37:14.413Z,1.23
2023-03-15T11:40:15.536Z,1.80
2023-03-15T11:43:29.318Z,1.45
2023-03-15T11:46:14.976Z,1.50
2023-03-15T11:49:15.270Z,1.10
2023-03-15T11:51:43.130Z,1.33
2023-03-15T11:54:15.577Z,1.80
2023-03-15T11:57:27.461Z,1.33
2023-03-15T11:59:56.605Z,1.65
2023-03-15T12:02:26.816Z,1.00
2023-03-15T12:04:55.797Z,1.30
2023-03-15T12:07:31.335Z,1.48
2023-03-15T12:10:04.763Z,1.48
2023-03-15T12:12:32.349Z,1.35
2023-03-15T12:15:06.280Z,1.55
2023-03-15T12:17:55.632Z,1.17
2023-03-15T12:20:38.812Z,1.30
2023-03-15T12:23:17.905Z,1.52
2023-03-15T12:26:03.438Z,1.80
2023-03-15T12:28:41.472Z,1.63
2023-03-15T12:31:15.831Z,1.70
2023-03-15T12:33:57.789Z,1.38
2023-03-15T12:36:41.380Z,1.98
2023-03-15T12:39:17.534Z,1.58
2023-03-15T12:41:51.455Z,1.52
2023-03-15T12:44:33.936Z,1.25
2023-03-15T12:47:03.799Z,1.65
2023-03-15T12:49:41.320Z,1.52
2023-03-15T12:52:11.675Z,1.42
2023-03-15T12:54:57.509Z,1.70
2023-03-15T12:57:30.196Z,1.45
2023-03-15T13:00:11.995Z,1.42
2023-03-15T13:02:50.280Z,1.40
2023-03-15T13:05:26.107Z,1.45
2023-03-15T13:07:56.603Z,1.02
2023-03-15T13:11:02.857Z,1.42
2023-03-15T13:13:52.151Z,1.33
2023-03-15T13:16:44.629Z,1.73
2023-03-15T13:19:12.167Z,1.02
2023-03-15T13:22:01.974Z,1.40
2023-03-15T13:24:52.873Z,1.48
2023-03-15T13:27:53.698Z,1.80
2023-03-15T13:30:55.507Z,1.13
2023-03-15T13:33:27.125Z,1.45
2023-03-15T13:36:10.966Z,1.55
2023-03-15T13:38:44.379Z,1.30
2023-03-15T13:41:20.908Z,1.02
2023-03-15T13:43:51.406Z,1.20
2023-03-15T13:46:24.592Z,1.30
2023-03-15T13:48:54.423Z,1.65
2023-03-15T13:51:26.364Z,1.30
2023-03-15T13:54:25.121Z,1.30
2023-03-15T13:57:01.482Z,1.38
2023-03-15T13:59:55.154Z,1.42
2023-03-15T14:02:52.420Z,1.17
2023-03-15T14:05:29.621Z,1.38
2023-03-15T14:07:57.167Z,1.20
2023-03-15T14:10:33.884Z,1.50
2023-03-15T14:13:46.272Z,1.60
2023-03-15T14:16:31.534Z,0.90
2023-03-15T14:19:18.317Z,1.23
2023-03-15T14:21:57.246Z,1.00
2023-03-15T14:24:37.887Z,1.10
2023-03-15T14:27:08.881Z,1.17
2023-03-15T14:29:39.107Z,1.15
2023-03-15T14:32:09.507Z,1.52
2023-03-15T14:34:45.465Z,1.50
2023-03-15T14:37:41.077Z,1.42
2023-03-15T14:40:29.789Z,1.35
2023-03-15T14:42:57.255Z,1.10
2023-03-15T14:45:24.806Z,0.95
2023-03-15T14:47:57.643Z,1.08
2023-03-15T14:50:34.634Z,1.10
2023-03-15T14:53:02.665Z,1.38
2023-03-15T14:55:35.189Z,1.35
2023-03-15T14:58:14.609Z,1.23
2023-03-15T15:00:44.650Z,2.15
2023-03-15T15:03:22.449Z,1.52
2023-03-15T15:05:50.086Z,1.73
2023-03-15T15:08:22.441Z,1.33
2023-03-15T15:10:52.313Z,1.60
2023-03-15T15:13:22.859Z,1.50
2023-03-15T15:15:56.102Z,1.33
2023-03-15T15:18:26.506Z,1.05
2023-03-15T15:20:56.586Z,1.48
2023-03-15T15:23:28.245Z,1.20
2023-03-15T15:26:04.714Z,1.33
2023-03-15T15:28:36.954Z,1.30
2023-03-15T15:31:07.003Z,1.50
2023-03-15T15:33:34.808Z,1.05
2023-03-15T15:36:02.940Z,1.02
2023-03-15T15:38:38.386Z,1.20
2023-03-15T15:41:13.395Z,1.30
2023-03-15T15:43:42.028Z,1.10
2023-03-15T15:46:11.616Z,2.03
2023-03-15T15:48:40.568Z,1.60
2023-03-15T15:51:19.841Z,1.55
2023-03-15T15:53:47.692Z,1.35
2023-03-15T15:56:15.925Z,1.00
2023-03-15T15:58:44.751Z,1.20
2023-03-15T16:01:14.411Z,1.08
2023-03-15T16:03:42.602Z,1.23
2023-03-15T16:06:21.230Z,1.02
2023-03-15T16:08:51.224Z,1.55
2023-03-15T16:11:19.480Z,1.73
2023-03-15T16:13:49.675Z,1.38
2023-03-15T16:16:18.014Z,1.33
2023-03-15T16:18:45.820Z,1.42
2023-03-15T16:21:33.708Z,1.38
2023-03-15T16:24:24.896Z,0.90
2023-03-15T16:26:59.870Z,0.95
2023-03-15T16:29:35.445Z,1.50
2023-03-15T16:32:15.966Z,1.58
2023-03-15T16:34:48.436Z,1.50
2023-03-15T16:37:25.936Z,1.08
2023-03-15T16:39:57.431Z,1.27
2023-03-15T16:42:25.846Z,1.02
2023-03-15T16:44:53.776Z,1.02
2023-03-15T16:47:21.438Z,1.73
2023-03-15T16:49:48.831Z,1.98
2023-03-15T16:52:17.367Z,1.42
2023-03-15T16:54:47.553Z,1.40
2023-03-15T16:57:22.693Z,0.85
2023-03-15T16:59:50.904Z,1.20
2023-03-15T17:02:27.734Z,1.30
2023-03-15T17:04:55.417Z,1.10
2023-03-15T17:07:31.415Z,1.10
2023-03-15T17:10:06.538Z,1.20
2023-03-15T17:12:35.787Z,1.42
2023-03-15T17:15:03.567Z,1.20
2023-03-15T17:17:36.308Z,1.10
2023-03-15T17:20:22.015Z,2.13
2023-03-15T17:22:51.361Z,1.35
2023-03-15T17:25:20.239Z,1.38
2023-03-15T17:27:49.271Z,2.15
2023-03-15T17:30:19.335Z,1.60
2023-03-15T17:32:47.280Z,1.40
2023-03-15T17:35:16.403Z,2.63
2023-03-15T17:37:47.915Z,2.70
2023-03-15T17:40:30.717Z,2.50
2023-03-15T17:43:00.986Z,1.70
2023-03-15T17:45:35.757Z,3.75
2023-03-15T17:48:04.436Z,3.35
2023-03-15T17:50:33.580Z,2.03
2023-03-15T17:53:15.888Z,2.20
2023-03-15T17:55:44.070Z,1.70
2023-03-15T17:58:22.890Z,1.85
2023-03-15T18:00:53.669Z,2.05
2023-03-15T18:03:23.268Z,2.05
2023-03-15T18:05:51.054Z,2.10
2023-03-15T18:08:21.503Z,2.10
2023-03-15T18:10:51.605Z,1.40
2023-03-15T18:13:23.370Z,2.40
2023-03-15T18:15:51.559Z,1.75
2023-03-15T18:18:19.863Z,1.58
2023-03-15T18:20:49.551Z,1.42
2023-03-15T18:23:18.501Z,1.50
2023-03-15T18:25:46.375Z,1.65
2023-03-15T18:28:14.167Z,2.00
2023-03-15T18:30:41.744Z,2.10
2023-03-15T18:33:11.065Z,2.20
2023-03-15T18:35:38.693Z,1.50
2023-03-15T18:38:06.210Z,2.10
2023-03-15T18:40:35.434Z,2.22
2023-03-15T18:43:05.350Z,1.60
2023-03-15T18:45:35.671Z,2.85
2023-03-15T18:48:04.519Z,1.55
2023-03-15T18:50:33.742Z,6.22
2023-03-15T18:53:03.537Z,3.42
2023-03-15T18:55:32.173Z,2.05
2023-03-15T18:57:59.610Z,2.15
2023-03-15T19:00:32.726Z,2.22
2023-03-15T19:03:01.363Z,1.88
2023-03-15T19:05:31.953Z,2.08
2023-03-15T19:07:59.475Z,1.70
2023-03-15T19:10:27.548Z,1.67
2023-03-15T19:12:55.180Z,1.63
2023-03-15T19:15:23.894Z,3.20
2023-03-15T19:17:54.626Z,4.18
2023-03-15T19:20:23.363Z,3.90
2023-03-15T19:22:52.381Z,2.78
2023-03-15T19:25:20.995Z,2.60
2023-03-15T19:27:48.765Z,2.42
2023-03-15T19:30:20.981Z,2.72
2023-03-15T19:32:50.947Z,2.20
2023-03-15T19:35:20.182Z,2.92
2023-03-15T19:37:48.883Z,2.30
2023-03-15T19:40:18.497Z,2.08
2023-03-15T19:42:47.079Z,2.10
2023-03-15T19:45:15.194Z,2.17
2023-03-15T19:47:42.845Z,2.50
2023-03-15T19:50:12.908Z,2.42
2023-03-15T19:52:46.118Z,1.98
2023-03-15T19:55:16.488Z,2.17
2023-03-15T19:57:44.201Z,2.03
2023-03-15T20:00:14.439Z,4.00
2023-03-15T20:02:43.036Z,4.07
2023-03-15T20:05:13.521Z,3.70
2023-03-15T20:07:42.541Z,4.28
2023-03-15T20:10:11.740Z,4.70
2023-03-15T20:12:42.664Z,5.78
2023-03-15T20:15:12.888Z,5.43
2023-03-15T20:17:41.156Z,5.47
2023-03-15T20:20:11.060Z,5.25
2023-03-15T20:22:41.232Z,5.90
2023-03-15T20:25:11.421Z,4.57
2023-03-15T20:27:39.095Z,4.40
2023-03-15T20:30:08.617Z,3.90
2023-03-15T20:32:36.431Z,3.83
2023-03-15T20:35:09.129Z,3.90
2023-03-15T20:37:40.557Z,3.03
2023-03-15T20:40:16.076Z,2.95
2023-03-15T20:42:43.940Z,3.47
2023-03-15T20:45:12.789Z,2.90
2023-03-15T20:47:41.331Z,3.00
2023-03-15T20:50:10.595Z,3.30
2023-03-15T20:52:38.372Z,3.45
2023-03-15T20:55:08.006Z,2.50
2023-03-15T20:57:36.651Z,2.55
2023-03-15T21:00:23.731Z,2.30
2023-03-15T21:02:51.499Z,2.78
2023-03-15T21:05:19.437Z,2.35
2023-03-15T21:07:46.927Z,2.22
2023-03-15T21:10:15.029Z,2.25
2023-03-15T21:12:44.126Z,2.15
2023-03-15T21:15:17.967Z,2.05
2023-03-15T21:17:48.948Z,2.20
2023-03-15T21:20:18.115Z,2.55
2023-03-15T21:22:45.676Z,2.38
2023-03-15T21:25:13.458Z,2.20
2023-03-15T21:27:41.261Z,2.05
2023-03-15T21:30:09.517Z,2.50
2023-03-15T21:32:38.392Z,1.63
2023-03-15T21:35:06.938Z,2.08
2023-03-15T21:37:34.567Z,2.35
2023-03-15T21:40:02.449Z,2.00
2023-03-15T21:42:29.872Z,2.10
2023-03-15T21:44:57.356Z,1.95
2023-03-15T21:47:24.932Z,1.98
2023-03-15T21:49:54.177Z,1.58
2023-03-15T21:52:21.917Z,1.70
2023-03-15T21:54:49.361Z,1.77
2023-03-15T21:59:44.579Z,1.70
2023-03-15T22:02:14.350Z,1.52
2023-03-15T22:04:42.494Z,1.25
2023-03-15T22:07:11.186Z,1.95
2023-03-15T22:09:39.166Z,1.63
2023-03-15T22:12:07.254Z,1.25
2023-03-15T22:14:34.821Z,1.30
2023-03-15T22:17:04.980Z,1.35
2023-03-15T22:19:32.665Z,1.40
2023-03-15T22:22:00.689Z,1.65
2023-03-15T22:24:28.082Z,1.33
2023-03-15T22:29:23.685Z,1.33
2023-03-15T22:34:19.890Z,1.45
2023-03-15T22:36:47.379Z,1.52
2023-03-15T22:39:14.834Z,1.63
2023-03-15T22:41:42.334Z,1.35
2023-03-15T22:44:09.967Z,1.60
2023-03-15T22:46:37.728Z,1.40
2023-03-15T22:49:05.269Z,1.77
2023-03-15T22:51:32.732Z,1.63
2023-03-15T22:54:00.244Z,1.63
2023-03-15T22:56:27.688Z,1.63
2023-03-15T22:58:55.722Z,1.85
2023-03-15T23:01:23.547Z,2.13
2023-03-15T23:03:51.309Z,1.42
2023-03-15T23:06:19.688Z,1.30
2023-03-15T23:08:47.086Z,1.60
2023-03-15T23:13:42.411Z,1.42
2023-03-15T23:16:10.006Z,1.73
2023-03-15T23:18:37.541Z,1.85
2023-03-15T23:23:34.426Z,1.50
2023-03-15T23:26:02.432Z,1.90
2023-03-15T23:28:30.695Z,1.95
2023-03-15T23:31:03.314Z,2.15
2023-03-15T23:33:34.108Z,1.50
2023-03-15T23:36:02.939Z,1.90
2023-03-15T23:38:30.425Z,1.42
2023-03-15T23:43:26.810Z,1.10
2023-03-15T23:46:05.319Z,1.17
2023-03-15T23:48:35.765Z,1.15
2023-03-15T23:51:03.285Z,1.33
2023-03-15T23:53:31.789Z,1.55
2023-03-15T23:55:59.376Z,1.27
2023-03-15T23:58:27.072Z,1.85
